Joshua Calab — WDE8488 — position and weather

sailwx.info

Track history (hours):
 
Tides and Currents Weather Stations Pressure Air Temp Water Temp Dewpoint Dewpoint Depression Visibility Wind Speed Wind Dir Waves Ship Positions

Joshua Calab

Owner: CLM MARINE, LLC, HUMBLE, TX. More information available from US FCC via Universal Licensing System and Coast Guard Vessel Documentation Center.

Last reported at 2017-Sep-02 08:00 UTC. Time now 2017-Sep-21 01:24 UTC.
Position N 29°45' W 095°11'.
Warning: this ship's position is 18 days out of date.

Length 25 m; draft 3 m.

Type: Other ship. MMSI: 367406080.

Date/timePositionNaut miles runAvg speedWind from/ knotsBaromVisibWave heightAir tempDewpointWater temp
2017-Sep-02 08:00N 29°45' W 095°11'  
2017-Aug-28 03:43N 29°45' W 095°11'1 0.2
2017-Aug-27 22:42N 29°45' W 095°10'1 2.5
2017-Aug-27 22:29N 29°45' W 095°10'2 0.1
2017-Aug-26 13:56N 29°44' W 095°07'3 6.1
2017-Aug-26 13:29N 29°45' W 095°10'1 1.1
2017-Aug-26 12:25N 29°45' W 095°11'4 6.1
2017-Aug-26 11:48N 29°44' W 095°07'2 6.5
2017-Aug-26 11:30N 29°46' W 095°05'1 0.0
2017-Aug-25 15:50N 29°46' W 095°05'3 4.2
2017-Aug-25 15:09N 29°44' W 095°07'1 4.2
2017-Aug-25 14:54N 29°44' W 095°08'2 4.0
2017-Aug-25 14:30N 29°45' W 095°10'0 0.1
2017-Aug-25 11:40N 29°44' W 095°10'0 0.0
2017-Aug-25 11:21N 29°44' W 095°10'0 0.0
2017-Aug-25 11:00N 29°44' W 095°10'0 0.0
2017-Aug-25 08:59N 29°44' W 095°10'0 0.0
2017-Aug-25 08:26N 29°44' W 095°10'0 0.0
2017-Aug-25 07:58N 29°44' W 095°10'0 0.0
2017-Aug-25 04:31N 29°44' W 095°10'0 0.4
2017-Aug-25 04:30N 29°44' W 095°10'0 0.0
2017-Aug-25 04:01N 29°44' W 095°10'0 0.0
2017-Aug-25 03:30N 29°44' W 095°10'1 0.0
2017-Aug-23 20:15N 29°45' W 095°11'1 4.2
2017-Aug-23 19:59N 29°44' W 095°09'2 4.2
2017-Aug-23 19:28N 29°44' W 095°07'2 4.2
2017-Aug-23 18:57N 29°46' W 095°05'1 0.4
2017-Aug-23 16:26N 29°47' W 095°06'2 4.0
2017-Aug-23 15:58N 29°45' W 095°06'3 5.8
2017-Aug-23 15:26N 29°45' W 095°10'  
Track history (hours):
 
Tides and Currents Weather Stations Pressure Air Temp Water Temp Dewpoint Dewpoint Depression Visibility Wind Speed Wind Dir Waves Ship Positions

Joshua Calab

Owner: CLM MARINE, LLC, HUMBLE, TX. More information available from US FCC via Universal Licensing System and Coast Guard Vessel Documentation Center.

Last reported at 2017-Sep-02 08:00 UTC. Time now 2017-Sep-21 01:24 UTC.
Position N 29°45' W 095°11'.
Warning: this ship's position is 18 days out of date.

Length 25 m; draft 3 m.

Type: Other ship. MMSI: 367406080.

Date/timePositionNaut miles runAvg speedWind from/ knotsBaromVisibWave heightAir tempDewpointWater temp
2017-Sep-02 08:00N 29°45' W 095°11'  
2017-Aug-28 03:43N 29°45' W 095°11'1 0.2
2017-Aug-27 22:42N 29°45' W 095°10'1 2.5
2017-Aug-27 22:29N 29°45' W 095°10'2 0.1
2017-Aug-26 13:56N 29°44' W 095°07'3 6.1
2017-Aug-26 13:29N 29°45' W 095°10'1 1.1
2017-Aug-26 12:25N 29°45' W 095°11'4 6.1
2017-Aug-26 11:48N 29°44' W 095°07'2 6.5
2017-Aug-26 11:30N 29°46' W 095°05'1 0.0
2017-Aug-25 15:50N 29°46' W 095°05'3 4.2
2017-Aug-25 15:09N 29°44' W 095°07'1 4.2
2017-Aug-25 14:54N 29°44' W 095°08'2 4.0
2017-Aug-25 14:30N 29°45' W 095°10'0 0.1
2017-Aug-25 11:40N 29°44' W 095°10'0 0.0
2017-Aug-25 11:21N 29°44' W 095°10'0 0.0
2017-Aug-25 11:00N 29°44' W 095°10'0 0.0
2017-Aug-25 08:59N 29°44' W 095°10'0 0.0
2017-Aug-25 08:26N 29°44' W 095°10'0 0.0
2017-Aug-25 07:58N 29°44' W 095°10'0 0.0
2017-Aug-25 04:31N 29°44' W 095°10'0 0.4
2017-Aug-25 04:30N 29°44' W 095°10'0 0.0
2017-Aug-25 04:01N 29°44' W 095°10'0 0.0
2017-Aug-25 03:30N 29°44' W 095°10'1 0.0
2017-Aug-23 20:15N 29°45' W 095°11'1 4.2
2017-Aug-23 19:59N 29°44' W 095°09'2 4.2
2017-Aug-23 19:28N 29°44' W 095°07'2 4.2
2017-Aug-23 18:57N 29°46' W 095°05'1 0.4
2017-Aug-23 16:26N 29°47' W 095°06'2 4.0
2017-Aug-23 15:58N 29°45' W 095°06'3 5.8
2017-Aug-23 15:26N 29°45' W 095°10'  

Dump ship's entire track history